Capt James — WDI2369 — position and weather

sailwx.info

Track history (hours):
 
Tides and Currents Weather Stations Pressure Air Temp Water Temp Dewpoint Dewpoint Depression Visibility Wind Speed Wind Dir Waves Ship Positions

Capt James

Owner: Higman Barge Lines, Inc., Orange, TX. More information available from US FCC via Universal Licensing System and Coast Guard Vessel Documentation Center.

Last reported at 2017-Nov-24 13:30 UTC. Time now 2017-Nov-25 02:11 UTC.
Position N 29°23' W 094°53'.

Length 24 m; draft 3.2 m.

Type: Tow > 200 m length. MMSI: 367677450.

Date/timePositionNaut miles runAvg speedWind from/ knotsBaromVisibWave heightAir tempDewpointWater temp
2017-Nov-24 13:30N 29°23' W 094°53'4 0.1
2017-Nov-23 03:48N 29°26' W 094°50'2 4.8
2017-Nov-23 03:28N 29°28' W 094°51'2 4.2
2017-Nov-23 03:00N 29°30' W 094°52'2 4.4
2017-Nov-23 02:30N 29°32' W 094°53'2 4.0
2017-Nov-23 02:00N 29°33' W 094°55'2 4.3
2017-Nov-23 01:30N 29°35' W 094°56'2 4.7
2017-Nov-23 01:00N 29°37' W 094°57'2 4.5
2017-Nov-23 00:30N 29°39' W 094°58'3 5.2
2017-Nov-23 00:00N 29°42' W 094°59'2 4.9
2017-Nov-22 23:30N 29°43' W 095°01'3 5.0
2017-Nov-22 22:56N 29°45' W 095°04'2 3.7
2017-Nov-22 22:28N 29°45' W 095°06'0 0.1
2017-Nov-22 21:57N 29°45' W 095°06'1 1.4
2017-Nov-22 21:24N 29°46' W 095°07'0 0.8
2017-Nov-22 20:59N 29°46' W 095°07'  
2017-Nov-18 02:52N 29°26' W 094°50'2 5.3
2017-Nov-18 02:24N 29°29' W 094°51'2 5.5
2017-Nov-18 01:59N 29°31' W 094°53'2 4.5
2017-Nov-18 01:30N 29°32' W 094°54'2 4.3
2017-Nov-18 01:00N 29°34' W 094°55'2 4.6
2017-Nov-18 00:30N 29°36' W 094°57'2 3.3
2017-Nov-18 00:00N 29°38' W 094°58'2 4.0
2017-Nov-17 23:30N 29°39' W 094°58'2 4.5
2017-Nov-17 23:00N 29°42' W 094°59'2 3.6
2017-Nov-17 22:30N 29°42' W 095°01'2 3.9
2017-Nov-17 22:00N 29°44' W 095°03'2 4.2
2017-Nov-17 21:28N 29°46' W 095°04'1 2.5
2017-Nov-17 20:56N 29°45' W 095°06'0 1.0
2017-Nov-17 20:28N 29°45' W 095°06'0 0.1
2017-Nov-17 20:00N 29°45' W 095°06'0 0.0
2017-Nov-17 19:30N 29°45' W 095°06'0 0.0
2017-Nov-17 19:00N 29°45' W 095°06'0 0.0
2017-Nov-17 18:30N 29°45' W 095°06'0 0.0
2017-Nov-17 18:00N 29°45' W 095°06'0 0.0
2017-Nov-17 17:30N 29°45' W 095°06'0 0.0
2017-Nov-17 17:00N 29°45' W 095°06'0 0.0
2017-Nov-17 16:30N 29°45' W 095°06'0 0.0
2017-Nov-17 16:00N 29°45' W 095°06'0 0.0
2017-Nov-17 15:30N 29°45' W 095°06'0 0.0
2017-Nov-17 15:00N 29°45' W 095°06'0 0.0
2017-Nov-17 14:03N 29°45' W 095°06'0 0.0
2017-Nov-17 13:54N 29°45' W 095°06'0 0.0
2017-Nov-17 13:02N 29°45' W 095°06'0 0.0
2017-Nov-17 11:41N 29°45' W 095°06'0 0.0
2017-Nov-17 11:18N 29°45' W 095°06'0 0.0
2017-Nov-17 10:52N 29°45' W 095°06'0 0.0
2017-Nov-17 10:30N 29°45' W 095°06'0 0.0
2017-Nov-17 09:52N 29°45' W 095°06'0 0.0
2017-Nov-17 09:29N 29°45' W 095°06'0 0.0
2017-Nov-17 09:00N 29°45' W 095°06'0 0.0
2017-Nov-17 08:30N 29°45' W 095°06'0 0.0
2017-Nov-17 08:00N 29°45' W 095°06'0 0.0
2017-Nov-17 07:30N 29°45' W 095°06'0 0.0
2017-Nov-17 07:00N 29°45' W 095°06'0 0.0
2017-Nov-17 06:29N 29°45' W 095°06'0 0.0
2017-Nov-17 03:36N 29°45' W 095°06'0 0.1
2017-Nov-17 03:30N 29°45' W 095°06'0 0.1
2017-Nov-17 03:00N 29°45' W 095°06'1 1.5
2017-Nov-17 02:30N 29°46' W 095°07'0 0.0
2017-Nov-16 16:41N 29°46' W 095°06'1 3.8
2017-Nov-16 16:24N 29°45' W 095°06'0 0.1
2017-Nov-16 16:00N 29°45' W 095°07'1 0.8
2017-Nov-16 14:33N 29°46' W 095°06'0 0.3
2017-Nov-16 14:04N 29°46' W 095°06'1 4.7
2017-Nov-16 13:57N 29°45' W 095°06'1 1.7
2017-Nov-16 13:21N 29°45' W 095°07'0 0.0
2017-Nov-16 12:27N 29°45' W 095°07'0 0.0
2017-Nov-16 12:00N 29°45' W 095°07'1 2.1
2017-Nov-16 11:30N 29°45' W 095°06'1 1.6
2017-Nov-16 10:59N 29°46' W 095°07'0 0.0
2017-Nov-16 10:19N 29°46' W 095°07'0 0.0
2017-Nov-16 08:58N 29°46' W 095°07'0 0.2
2017-Nov-16 08:17N 29°46' W 095°07'1 2.8
2017-Nov-16 07:58N 29°45' W 095°06'0 0.7
2017-Nov-16 07:28N 29°45' W 095°06'0 0.2
2017-Nov-16 06:59N 29°45' W 095°06'0 0.0
2017-Nov-16 06:30N 29°45' W 095°06'0 0.0
2017-Nov-16 05:58N 29°45' W 095°06'0 0.0
2017-Nov-16 05:29N 29°45' W 095°06'0 0.0
2017-Nov-16 04:59N 29°45' W 095°06'0 0.0
2017-Nov-16 04:30N 29°45' W 095°06'0 0.0
2017-Nov-16 04:00N 29°45' W 095°06'0 0.0
2017-Nov-16 03:30N 29°45' W 095°06'0 0.0
2017-Nov-16 03:00N 29°45' W 095°06'0 0.0
2017-Nov-16 02:30N 29°45' W 095°06'0 0.0
2017-Nov-16 02:00N 29°45' W 095°06'0 0.0
2017-Nov-16 01:30N 29°45' W 095°06'0 0.0
2017-Nov-16 01:00N 29°45' W 095°06'0 0.0
2017-Nov-16 00:30N 29°45' W 095°06'0 0.0
2017-Nov-16 00:00N 29°45' W 095°06'0 0.0
2017-Nov-15 23:30N 29°45' W 095°06'0 0.0
2017-Nov-15 23:00N 29°45' W 095°06'0 0.0
2017-Nov-15 22:30N 29°45' W 095°06'0 0.0
2017-Nov-15 22:00N 29°45' W 095°06'0 0.0
2017-Nov-15 21:30N 29°45' W 095°06'0 0.0
2017-Nov-15 21:00N 29°45' W 095°06'0 0.0
2017-Nov-15 20:30N 29°45' W 095°06'0 0.0
2017-Nov-15 20:00N 29°45' W 095°06'0 0.0
2017-Nov-15 19:30N 29°45' W 095°06'0 0.0
2017-Nov-15 19:00N 29°45' W 095°06'0 0.0
2017-Nov-15 18:29N 29°45' W 095°06'0 0.0
2017-Nov-15 18:00N 29°45' W 095°06'0 0.0
2017-Nov-15 17:30N 29°45' W 095°06'0 0.0
2017-Nov-15 17:00N 29°45' W 095°06'0 0.0
2017-Nov-15 16:30N 29°45' W 095°06'0 0.0
2017-Nov-15 16:00N 29°45' W 095°06'0 0.0
2017-Nov-15 15:30N 29°45' W 095°06'0 0.3
2017-Nov-15 15:00N 29°45' W 095°06'0 0.0
2017-Nov-15 14:30N 29°45' W 095°06'0 0.0
2017-Nov-15 13:59N 29°45' W 095°06'0 0.0
2017-Nov-15 13:30N 29°45' W 095°06'0 0.0
2017-Nov-15 13:00N 29°45' W 095°06'0 0.0
2017-Nov-15 12:30N 29°45' W 095°06'0 0.3
2017-Nov-15 12:00N 29°45' W 095°06'1 2.6
2017-Nov-15 11:30N 29°46' W 095°05'2 4.7
2017-Nov-15 11:00N 29°44' W 095°03'2 4.7
2017-Nov-15 10:30N 29°42' W 095°01'3 5.0
2017-Nov-15 10:00N 29°41' W 094°59'3 5.8
2017-Nov-15 09:30N 29°38' W 094°58'3 5.8
2017-Nov-15 09:00N 29°36' W 094°56'3 6.0
2017-Nov-15 08:30N 29°33' W 094°54'3 5.9
2017-Nov-15 07:59N 29°30' W 094°53'3 5.9
2017-Nov-15 07:29N 29°28' W 094°51'68 4.4
2017-Nov-14 16:13N 30°02' W 093°44'1 5.6
2017-Nov-14 15:58N 30°03' W 093°43'2 5.3
2017-Nov-14 15:30N 30°04' W 093°40'2 3.4
2017-Nov-14 15:00N 30°04' W 093°38'2 4.6
2017-Nov-14 14:29N 30°04' W 093°35'3 5.7
2017-Nov-14 13:59N 30°04' W 093°32'3 5.8
2017-Nov-14 13:30N 30°04' W 093°29'  
Track history (hours):
 
Tides and Currents Weather Stations Pressure Air Temp Water Temp Dewpoint Dewpoint Depression Visibility Wind Speed Wind Dir Waves Ship Positions

Capt James

Owner: Higman Barge Lines, Inc., Orange, TX. More information available from US FCC via Universal Licensing System and Coast Guard Vessel Documentation Center.

Last reported at 2017-Nov-24 13:30 UTC. Time now 2017-Nov-25 02:11 UTC.
Position N 29°23' W 094°53'.

Length 24 m; draft 3.2 m.

Type: Tow > 200 m length. MMSI: 367677450.

Date/timePositionNaut miles runAvg speedWind from/ knotsBaromVisibWave heightAir tempDewpointWater temp
2017-Nov-24 13:30N 29°23' W 094°53'4 0.1
2017-Nov-23 03:48N 29°26' W 094°50'2 4.8
2017-Nov-23 03:28N 29°28' W 094°51'2 4.2
2017-Nov-23 03:00N 29°30' W 094°52'2 4.4
2017-Nov-23 02:30N 29°32' W 094°53'2 4.0
2017-Nov-23 02:00N 29°33' W 094°55'2 4.3
2017-Nov-23 01:30N 29°35' W 094°56'2 4.7
2017-Nov-23 01:00N 29°37' W 094°57'2 4.5
2017-Nov-23 00:30N 29°39' W 094°58'3 5.2
2017-Nov-23 00:00N 29°42' W 094°59'2 4.9
2017-Nov-22 23:30N 29°43' W 095°01'3 5.0
2017-Nov-22 22:56N 29°45' W 095°04'2 3.7
2017-Nov-22 22:28N 29°45' W 095°06'0 0.1
2017-Nov-22 21:57N 29°45' W 095°06'1 1.4
2017-Nov-22 21:24N 29°46' W 095°07'0 0.8
2017-Nov-22 20:59N 29°46' W 095°07'  
2017-Nov-18 02:52N 29°26' W 094°50'2 5.3
2017-Nov-18 02:24N 29°29' W 094°51'2 5.5
2017-Nov-18 01:59N 29°31' W 094°53'2 4.5
2017-Nov-18 01:30N 29°32' W 094°54'2 4.3
2017-Nov-18 01:00N 29°34' W 094°55'2 4.6
2017-Nov-18 00:30N 29°36' W 094°57'2 3.3
2017-Nov-18 00:00N 29°38' W 094°58'2 4.0
2017-Nov-17 23:30N 29°39' W 094°58'2 4.5
2017-Nov-17 23:00N 29°42' W 094°59'2 3.6
2017-Nov-17 22:30N 29°42' W 095°01'2 3.9
2017-Nov-17 22:00N 29°44' W 095°03'2 4.2
2017-Nov-17 21:28N 29°46' W 095°04'1 2.5
2017-Nov-17 20:56N 29°45' W 095°06'0 1.0
2017-Nov-17 20:28N 29°45' W 095°06'0 0.1
2017-Nov-17 20:00N 29°45' W 095°06'0 0.0
2017-Nov-17 19:30N 29°45' W 095°06'0 0.0
2017-Nov-17 19:00N 29°45' W 095°06'0 0.0
2017-Nov-17 18:30N 29°45' W 095°06'0 0.0
2017-Nov-17 18:00N 29°45' W 095°06'0 0.0
2017-Nov-17 17:30N 29°45' W 095°06'0 0.0
2017-Nov-17 17:00N 29°45' W 095°06'0 0.0
2017-Nov-17 16:30N 29°45' W 095°06'0 0.0
2017-Nov-17 16:00N 29°45' W 095°06'0 0.0
2017-Nov-17 15:30N 29°45' W 095°06'0 0.0
2017-Nov-17 15:00N 29°45' W 095°06'0 0.0
2017-Nov-17 14:03N 29°45' W 095°06'0 0.0
2017-Nov-17 13:54N 29°45' W 095°06'0 0.0
2017-Nov-17 13:02N 29°45' W 095°06'0 0.0
2017-Nov-17 11:41N 29°45' W 095°06'0 0.0
2017-Nov-17 11:18N 29°45' W 095°06'0 0.0
2017-Nov-17 10:52N 29°45' W 095°06'0 0.0
2017-Nov-17 10:30N 29°45' W 095°06'0 0.0
2017-Nov-17 09:52N 29°45' W 095°06'0 0.0
2017-Nov-17 09:29N 29°45' W 095°06'0 0.0
2017-Nov-17 09:00N 29°45' W 095°06'0 0.0
2017-Nov-17 08:30N 29°45' W 095°06'0 0.0
2017-Nov-17 08:00N 29°45' W 095°06'0 0.0
2017-Nov-17 07:30N 29°45' W 095°06'0 0.0
2017-Nov-17 07:00N 29°45' W 095°06'0 0.0
2017-Nov-17 06:29N 29°45' W 095°06'0 0.0
2017-Nov-17 03:36N 29°45' W 095°06'0 0.1
2017-Nov-17 03:30N 29°45' W 095°06'0 0.1
2017-Nov-17 03:00N 29°45' W 095°06'1 1.5
2017-Nov-17 02:30N 29°46' W 095°07'0 0.0
2017-Nov-16 16:41N 29°46' W 095°06'1 3.8
2017-Nov-16 16:24N 29°45' W 095°06'0 0.1
2017-Nov-16 16:00N 29°45' W 095°07'1 0.8
2017-Nov-16 14:33N 29°46' W 095°06'0 0.3
2017-Nov-16 14:04N 29°46' W 095°06'1 4.7
2017-Nov-16 13:57N 29°45' W 095°06'1 1.7
2017-Nov-16 13:21N 29°45' W 095°07'0 0.0
2017-Nov-16 12:27N 29°45' W 095°07'0 0.0
2017-Nov-16 12:00N 29°45' W 095°07'1 2.1
2017-Nov-16 11:30N 29°45' W 095°06'1 1.6
2017-Nov-16 10:59N 29°46' W 095°07'0 0.0
2017-Nov-16 10:19N 29°46' W 095°07'0 0.0
2017-Nov-16 08:58N 29°46' W 095°07'0 0.2
2017-Nov-16 08:17N 29°46' W 095°07'1 2.8
2017-Nov-16 07:58N 29°45' W 095°06'0 0.7
2017-Nov-16 07:28N 29°45' W 095°06'0 0.2
2017-Nov-16 06:59N 29°45' W 095°06'0 0.0
2017-Nov-16 06:30N 29°45' W 095°06'0 0.0
2017-Nov-16 05:58N 29°45' W 095°06'0 0.0
2017-Nov-16 05:29N 29°45' W 095°06'0 0.0
2017-Nov-16 04:59N 29°45' W 095°06'0 0.0
2017-Nov-16 04:30N 29°45' W 095°06'0 0.0
2017-Nov-16 04:00N 29°45' W 095°06'0 0.0
2017-Nov-16 03:30N 29°45' W 095°06'0 0.0
2017-Nov-16 03:00N 29°45' W 095°06'0 0.0
2017-Nov-16 02:30N 29°45' W 095°06'0 0.0
2017-Nov-16 02:00N 29°45' W 095°06'0 0.0
2017-Nov-16 01:30N 29°45' W 095°06'0 0.0
2017-Nov-16 01:00N 29°45' W 095°06'0 0.0
2017-Nov-16 00:30N 29°45' W 095°06'0 0.0
2017-Nov-16 00:00N 29°45' W 095°06'0 0.0
2017-Nov-15 23:30N 29°45' W 095°06'0 0.0
2017-Nov-15 23:00N 29°45' W 095°06'0 0.0
2017-Nov-15 22:30N 29°45' W 095°06'0 0.0
2017-Nov-15 22:00N 29°45' W 095°06'0 0.0
2017-Nov-15 21:30N 29°45' W 095°06'0 0.0
2017-Nov-15 21:00N 29°45' W 095°06'0 0.0
2017-Nov-15 20:30N 29°45' W 095°06'0 0.0
2017-Nov-15 20:00N 29°45' W 095°06'0 0.0
2017-Nov-15 19:30N 29°45' W 095°06'0 0.0
2017-Nov-15 19:00N 29°45' W 095°06'0 0.0
2017-Nov-15 18:29N 29°45' W 095°06'0 0.0
2017-Nov-15 18:00N 29°45' W 095°06'0 0.0
2017-Nov-15 17:30N 29°45' W 095°06'0 0.0
2017-Nov-15 17:00N 29°45' W 095°06'0 0.0
2017-Nov-15 16:30N 29°45' W 095°06'0 0.0
2017-Nov-15 16:00N 29°45' W 095°06'0 0.0
2017-Nov-15 15:30N 29°45' W 095°06'0 0.3
2017-Nov-15 15:00N 29°45' W 095°06'0 0.0
2017-Nov-15 14:30N 29°45' W 095°06'0 0.0
2017-Nov-15 13:59N 29°45' W 095°06'0 0.0
2017-Nov-15 13:30N 29°45' W 095°06'0 0.0
2017-Nov-15 13:00N 29°45' W 095°06'0 0.0
2017-Nov-15 12:30N 29°45' W 095°06'0 0.3
2017-Nov-15 12:00N 29°45' W 095°06'1 2.6
2017-Nov-15 11:30N 29°46' W 095°05'2 4.7
2017-Nov-15 11:00N 29°44' W 095°03'2 4.7
2017-Nov-15 10:30N 29°42' W 095°01'3 5.0
2017-Nov-15 10:00N 29°41' W 094°59'3 5.8
2017-Nov-15 09:30N 29°38' W 094°58'3 5.8
2017-Nov-15 09:00N 29°36' W 094°56'3 6.0
2017-Nov-15 08:30N 29°33' W 094°54'3 5.9
2017-Nov-15 07:59N 29°30' W 094°53'3 5.9
2017-Nov-15 07:29N 29°28' W 094°51'68 4.4
2017-Nov-14 16:13N 30°02' W 093°44'1 5.6
2017-Nov-14 15:58N 30°03' W 093°43'2 5.3
2017-Nov-14 15:30N 30°04' W 093°40'2 3.4
2017-Nov-14 15:00N 30°04' W 093°38'2 4.6
2017-Nov-14 14:29N 30°04' W 093°35'3 5.7
2017-Nov-14 13:59N 30°04' W 093°32'3 5.8
2017-Nov-14 13:30N 30°04' W 093°29'  

Dump ship's entire track history